Time;durP1;ratioP1;P1;durP2;ratioP2;P2;SDS_P1;SDS_P2;PMS_P1;PMS_P2;Temp;Humidity;BMP_temperature;BMP_pressure;BME280_temperature;BME280_humidity;BME280_pressure;Samples;Min_cycle;Max_cycle;Signal;HPM_P1;HPM_P2
2022/09/23 00:02:32;;;;;;;;;;;;;;;5.79;65.92;101542.07;1603162;88;20238;-77
2022/09/23 00:05:17;;;;;;;;;;;;;;;5.74;65.91;101539.84;1615770;88;20240;-77
2022/09/23 00:08:02;;;;;;;;;;;;;;;5.70;65.93;101542.34;1598826;88;20150;-77
2022/09/23 00:10:46;;;;;;;;;;;;;;;5.65;66.02;101545.69;1604130;88;20208;-77
2022/09/23 00:13:32;;;;;;;;;;;;;;;5.64;66.04;101549.09;1612229;88;20225;-78
2022/09/23 00:16:23;;;;;;;;;;;;;;;5.64;65.88;101545.66;1594132;88;20287;-78
2022/09/23 00:19:07;;;;;;;;;;;;;;;5.59;65.87;101543.02;1594695;88;20253;-77
2022/09/23 00:21:52;;;;;;;;;;;;;;;5.57;65.92;101545.09;1599477;88;20183;-77
2022/09/23 00:24:36;;;;;;;;;;;;;;;5.53;65.83;101551.00;1589833;88;20346;-77
2022/09/23 00:27:21;;;;;;;;;;;;;;;5.49;65.91;101549.21;1595388;88;20194;-77
2022/09/23 00:30:08;;;;;;;;;;;;;;;5.45;65.86;101552.13;1604140;88;20193;-77
2022/09/23 00:32:53;;;;;;;;;;;;;;;5.40;65.84;101554.16;1592256;88;20186;-77
2022/09/23 00:35:37;;;;;;;;;;;;;;;5.38;65.94;101547.72;1599811;88;20635;-77
2022/09/23 00:38:22;;;;;;;;;;;;;;;5.37;65.95;101549.83;1610725;88;20211;-76
2022/09/23 00:41:07;;;;;;;;;;;;;;;5.32;66.00;101547.17;1596496;88;20216;-77
2022/09/23 00:43:55;;;;;;;;;;;;;;;5.31;66.04;101548.42;1619322;88;20456;-77
2022/09/23 00:46:44;;;;;;;;;;;;;;;5.28;66.10;101545.37;1617128;88;20486;-77
2022/09/23 00:49:30;;;;;;;;;;;;;;;5.19;65.97;101549.06;1596095;88;20207;-77
2022/09/23 00:52:17;;;;;;;;;;;;;;;5.10;66.02;101544.16;1597566;88;20198;-77
2022/09/23 00:55:08;;;;;;;;;;;;;;;5.06;66.14;101539.39;1598053;88;20200;-77
2022/09/23 00:57:55;;;;;;;;;;;;;;;5.06;66.21;101535.95;1594186;88;20183;-77
2022/09/23 01:00:41;;;;;;;;;;;;;;;5.08;66.22;101536.86;1593997;88;20178;-77
2022/09/23 01:03:26;;;;;;;;;;;;;;;5.05;66.18;101541.50;1585573;88;20509;-77
2022/09/23 01:06:12;;;;;;;;;;;;;;;4.99;66.16;101533.27;1600644;88;20272;-77
2022/09/23 01:08:57;;;;;;;;;;;;;;;4.98;66.24;101526.82;1611962;88;20622;-77
2022/09/23 01:11:54;;;;;;;;;;;;;;;4.98;66.26;101526.41;1606617;87;20163;-78
2022/09/23 01:14:57;;;;;;;;;;;;;;;4.97;66.20;101518.69;1600581;88;20200;-78
2022/09/23 01:18:10;;;;;;;;;;;;;;;4.95;66.21;101519.06;1598009;88;20231;-77
2022/09/23 01:21:01;;;;;;;;;;;;;;;4.93;66.21;101515.61;1578202;89;20206;-77
2022/09/23 01:23:58;;;;;;;;;;;;;;;4.92;66.19;101519.00;1564295;86;21214;-77
2022/09/23 01:27:01;;;;;;;;;;;;;;;4.90;66.20;101512.56;1562718;89;20426;-77
2022/09/23 01:30:08;;;;;;;;;;;;;;;4.85;66.12;101514.57;1582874;89;20443;-77
2022/09/23 01:33:03;;;;;;;;;;;;;;;4.81;66.15;101512.77;1581467;89;20260;-77
2022/09/23 01:36:03;;;;;;;;;;;;;;;4.79;66.26;101515.30;1565694;89;20200;-77
2022/09/23 01:39:00;;;;;;;;;;;;;;;4.73;66.18;101516.45;1568996;89;20197;-76
2022/09/23 01:41:54;;;;;;;;;;;;;;;4.71;66.32;101509.56;1546983;89;20195;-77
2022/09/23 01:44:50;;;;;;;;;;;;;;;4.66;66.30;101508.21;1556741;89;21089;-77
2022/09/23 01:47:54;;;;;;;;;;;;;;;4.65;66.35;101500.94;1589959;87;20302;-77
2022/09/23 01:50:57;;;;;;;;;;;;;;;4.65;66.26;101507.76;1578246;89;20536;-76
2022/09/23 01:54:04;;;;;;;;;;;;;;;4.59;66.38;101502.08;1620549;88;20258;-77
2022/09/23 01:56:52;;;;;;;;;;;;;;;4.56;66.34;101500.73;1602252;89;20476;-77
2022/09/23 01:59:38;;;;;;;;;;;;;;;4.55;66.43;101507.09;1598580;89;20593;-76
2022/09/23 02:02:33;;;;;;;;;;;;;;;4.58;66.46;101501.63;1587066;89;20509;-76
2022/09/23 02:05:36;;;;;;;;;;;;;;;4.58;66.36;101504.61;1589062;89;20661;-76
2022/09/23 02:08:24;;;;;;;;;;;;;;;4.52;66.28;101506.61;1594657;89;21349;-76
2022/09/23 02:11:10;;;;;;;;;;;;;;;4.42;66.31;101504.67;1588509;89;20989;-76
2022/09/23 02:14:01;;;;;;;;;;;;;;;4.39;66.46;101508.85;1598248;89;20248;-76
2022/09/23 02:16:49;;;;;;;;;;;;;;;4.39;66.46;101507.58;1585924;89;20154;-76
2022/09/23 02:19:48;;;;;;;;;;;;;;;4.38;66.46;101509.69;1582182;89;20238;-76
2022/09/23 02:22:42;;;;;;;;;;;;;;;4.35;66.42;101504.48;1583937;89;20321;-76
2022/09/23 02:25:32;;;;;;;;;;;;;;;4.31;66.47;101498.02;1582353;89;20178;-76
2022/09/23 02:28:26;;;;;;;;;;;;;;;4.27;66.47;101500.05;1605192;89;20212;-76
2022/09/23 02:31:18;;;;;;;;;;;;;;;4.26;66.46;101494.89;1586976;89;20245;-76
2022/09/23 02:34:07;;;;;;;;;;;;;;;4.23;66.55;101493.12;1558911;90;20224;-76
2022/09/23 02:37:12;;;;;;;;;;;;;;;4.24;66.59;101493.99;1567610;90;20195;-76
2022/09/23 02:40:21;;;;;;;;;;;;;;;4.23;66.60;101490.98;1550009;90;20181;-76
2022/09/23 02:43:11;;;;;;;;;;;;;;;4.24;66.60;101488.45;1559781;90;21087;-76
2022/09/23 02:45:56;;;;;;;;;;;;;;;4.25;66.65;101491.88;1554682;90;20492;-76
2022/09/23 02:48:44;;;;;;;;;;;;;;;4.24;66.57;101493.58;1555965;90;20203;-76
2022/09/23 02:51:30;;;;;;;;;;;;;;;4.23;66.52;101489.70;1556623;90;20190;-76
2022/09/23 02:54:18;;;;;;;;;;;;;;;4.19;66.68;101488.77;1564080;90;21152;-76
2022/09/23 02:57:05;;;;;;;;;;;;;;;4.17;66.61;101489.55;1573843;89;20217;-76
2022/09/23 02:59:50;;;;;;;;;;;;;;;4.21;66.76;101486.23;1565440;90;20564;-76
2022/09/23 03:02:50;;;;;;;;;;;;;;;4.25;66.71;101486.77;1566339;89;20246;-76
2022/09/23 03:05:38;;;;;;;;;;;;;;;4.24;66.62;101487.59;1558202;90;20224;-76
2022/09/23 03:08:41;;;;;;;;;;;;;;;4.21;66.60;101478.56;1569004;89;20707;-76
2022/09/23 03:11:26;;;;;;;;;;;;;;;4.17;66.63;101478.91;1567535;90;20209;-76
2022/09/23 03:14:18;;;;;;;;;;;;;;;4.14;66.68;101478.86;1568607;90;20204;-76
2022/09/23 03:17:08;;;;;;;;;;;;;;;4.15;66.82;101483.16;1575380;90;20241;-76
2022/09/23 03:19:57;;;;;;;;;;;;;;;4.15;66.75;101483.56;1577903;89;20194;-76
2022/09/23 03:22:44;;;;;;;;;;;;;;;4.13;66.77;101482.66;1571505;89;20203;-76
2022/09/23 03:25:32;;;;;;;;;;;;;;;4.13;66.84;101474.57;1562479;90;20238;-76
2022/09/23 03:28:19;;;;;;;;;;;;;;;4.15;66.87;101470.36;1572502;89;20202;-76
2022/09/23 03:31:05;;;;;;;;;;;;;;;4.16;66.82;101468.66;1558300;90;20148;-76
2022/09/23 03:33:54;;;;;;;;;;;;;;;4.14;66.80;101467.34;1558580;90;39309;-76
2022/09/23 03:37:00;;;;;;;;;;;;;;;4.09;66.91;101462.94;1564366;89;20366;-76
2022/09/23 03:39:51;;;;;;;;;;;;;;;4.08;66.94;101465.91;1576679;90;20191;-76
2022/09/23 03:42:37;;;;;;;;;;;;;;;4.06;67.08;101465.43;1563563;90;20200;-76
2022/09/23 03:45:26;;;;;;;;;;;;;;;4.09;67.01;101464.22;1573299;90;20206;-77
2022/09/23 03:48:12;;;;;;;;;;;;;;;4.06;67.01;101462.87;1564460;90;20566;-76
2022/09/23 03:50:57;;;;;;;;;;;;;;;4.04;67.02;101465.39;1584209;89;20228;-76
2022/09/23 03:53:42;;;;;;;;;;;;;;;4.03;66.96;101466.22;1570052;88;20240;-76
2022/09/23 03:56:26;;;;;;;;;;;;;;;3.97;67.00;101466.94;1604994;88;20212;-76
2022/09/23 03:59:13;;;;;;;;;;;;;;;3.94;66.98;101456.63;1616753;88;20495;-76
2022/09/23 04:01:58;;;;;;;;;;;;;;;3.92;67.03;101454.44;1617636;88;21335;-76
2022/09/23 04:04:44;;;;;;;;;;;;;;;3.92;67.09;101454.44;1618761;88;20201;-76
2022/09/23 04:07:29;;;;;;;;;;;;;;;3.94;67.13;101446.80;1602251;88;20246;-77
2022/09/23 04:10:13;;;;;;;;;;;;;;;3.97;67.14;101445.19;1603202;88;20206;-77
2022/09/23 04:12:57;;;;;;;;;;;;;;;3.98;67.05;101448.61;1610241;88;20219;-78
2022/09/23 04:15:42;;;;;;;;;;;;;;;3.93;67.05;101448.91;1615426;88;20144;-78
2022/09/23 04:18:27;;;;;;;;;;;;;;;3.89;67.04;101443.27;1612877;88;20274;-78
2022/09/23 04:21:11;;;;;;;;;;;;;;;3.84;67.09;101451.24;1610088;87;20226;-80
2022/09/23 04:23:56;;;;;;;;;;;;;;;3.84;67.18;101442.28;1613817;87;20603;-80
2022/09/23 04:26:41;;;;;;;;;;;;;;;3.83;67.15;101441.84;1613870;88;20192;-80
2022/09/23 04:29:26;;;;;;;;;;;;;;;3.80;67.15;101437.92;1613683;87;20160;-80
2022/09/23 04:32:11;;;;;;;;;;;;;;;3.78;67.19;101434.05;1616124;88;20220;-80
2022/09/23 04:34:55;;;;;;;;;;;;;;;3.79;67.25;101434.91;1617058;88;20479;-80
2022/09/23 04:37:40;;;;;;;;;;;;;;;3.77;67.19;101443.83;1618475;88;20205;-80
2022/09/23 04:40:24;;;;;;;;;;;;;;;3.79;67.32;101435.78;1618031;87;20244;-80
2022/09/23 04:43:09;;;;;;;;;;;;;;;3.82;67.30;101438.83;1618451;88;20241;-80
2022/09/23 04:45:59;;;;;;;;;;;;;;;3.82;67.40;101433.71;1615403;86;20136;-80
2022/09/23 04:48:44;;;;;;;;;;;;;;;3.84;67.37;101438.45;1619283;88;20236;-79
2022/09/23 04:51:29;;;;;;;;;;;;;;;3.81;67.32;101441.80;1615013;88;20249;-80
2022/09/23 04:54:13;;;;;;;;;;;;;;;3.84;67.38;101431.64;1615817;86;21125;-79
2022/09/23 04:56:58;;;;;;;;;;;;;;;3.84;67.29;101439.73;1617867;88;20320;-79
2022/09/23 04:59:44;;;;;;;;;;;;;;;3.85;67.34;101439.77;1615005;87;20504;-79
2022/09/23 05:02:29;;;;;;;;;;;;;;;3.88;67.39;101437.28;1612321;87;20459;-78
2022/09/23 05:05:17;;;;;;;;;;;;;;;3.87;67.30;101438.53;1615034;88;21130;-78
2022/09/23 05:08:01;;;;;;;;;;;;;;;3.88;67.28;101440.25;1603516;88;20184;-78
2022/09/23 05:10:46;;;;;;;;;;;;;;;3.84;67.32;101441.88;1617313;88;20164;-78
2022/09/23 05:13:34;;;;;;;;;;;;;;;3.89;67.47;101447.11;1619060;88;20821;-78
2022/09/23 05:16:20;;;;;;;;;;;;;;;3.93;67.42;101453.61;1615833;88;20633;-78
2022/09/23 05:19:05;;;;;;;;;;;;;;;3.97;67.46;101455.83;1618578;88;21170;-78
2022/09/23 05:21:50;;;;;;;;;;;;;;;4.03;67.53;101457.27;1615953;88;20500;-78
2022/09/23 05:24:35;;;;;;;;;;;;;;;4.13;67.56;101451.95;1615143;88;20212;-78
2022/09/23 05:27:20;;;;;;;;;;;;;;;4.21;67.53;101455.52;1600697;88;20220;-78
2022/09/23 05:30:06;;;;;;;;;;;;;;;4.27;67.63;101450.55;1609517;88;20451;-78
2022/09/23 05:32:50;;;;;;;;;;;;;;;4.35;67.61;101450.72;1620681;88;20153;-78
2022/09/23 05:35:35;;;;;;;;;;;;;;;4.42;67.66;101452.59;1613085;87;20195;-78
2022/09/23 05:38:19;;;;;;;;;;;;;;;4.53;67.67;101446.02;1618122;87;20212;-78
2022/09/23 05:41:07;;;;;;;;;;;;;;;4.61;67.55;101452.17;1615839;88;20496;-78
2022/09/23 05:43:53;;;;;;;;;;;;;;;4.69;67.62;101451.89;1619422;88;20221;-78
2022/09/23 05:46:38;;;;;;;;;;;;;;;4.73;67.57;101449.84;1615683;88;20198;-78
2022/09/23 05:49:23;;;;;;;;;;;;;;;4.78;67.62;101447.37;1616543;88;20440;-78
2022/09/23 05:52:08;;;;;;;;;;;;;;;4.87;67.75;101455.25;1617240;88;20481;-78
2022/09/23 05:54:52;;;;;;;;;;;;;;;4.94;67.83;101445.16;1620593;87;20184;-78
2022/09/23 05:57:37;;;;;;;;;;;;;;;5.16;67.95;101449.44;1629877;86;20188;-78
2022/09/23 06:00:22;;;;;;;;;;;;;;;5.63;68.24;101446.44;1628696;86;20183;-79
2022/09/23 06:03:15;;;;;;;;;;;;;;;6.25;68.16;101441.44;1633005;86;20215;-79
2022/09/23 06:06:00;;;;;;;;;;;;;;;6.92;68.13;101445.77;1634146;85;20649;-79
2022/09/23 06:08:45;;;;;;;;;;;;;;;7.60;68.05;101440.90;1627987;86;20207;-79
2022/09/23 06:11:33;;;;;;;;;;;;;;;8.16;67.96;101436.20;1632981;87;20380;-79
2022/09/23 06:14:17;;;;;;;;;;;;;;;8.74;67.61;101445.58;1633209;87;20218;-78
2022/09/23 06:17:02;;;;;;;;;;;;;;;9.20;67.38;101439.28;1627660;87;20192;-78
2022/09/23 06:19:47;;;;;;;;;;;;;;;9.51;67.20;101441.05;1631429;87;20135;-78
2022/09/23 06:22:31;;;;;;;;;;;;;;;9.92;67.62;101441.48;1633051;87;20204;-78
2022/09/23 06:25:18;;;;;;;;;;;;;;;10.36;67.36;101440.62;1633139;85;20210;-78
2022/09/23 06:28:02;;;;;;;;;;;;;;;10.69;67.14;101443.52;1632514;87;20236;-78
2022/09/23 06:30:48;;;;;;;;;;;;;;;11.08;67.56;101436.87;1630370;86;20196;-78
2022/09/23 06:33:34;;;;;;;;;;;;;;;11.75;67.43;101442.05;1631435;86;20231;-78
2022/09/23 06:36:19;;;;;;;;;;;;;;;12.42;67.08;101433.67;1632803;86;20240;-77
2022/09/23 06:39:03;;;;;;;;;;;;;;;13.12;66.79;101432.79;1633358;86;20235;-77
2022/09/23 06:41:48;;;;;;;;;;;;;;;13.80;66.70;101421.83;1632771;87;20167;-77
2022/09/23 06:44:33;;;;;;;;;;;;;;;14.41;66.45;101420.73;1632703;86;20206;-77
2022/09/23 06:47:17;;;;;;;;;;;;;;;15.01;66.44;101422.56;1629794;86;20199;-77
2022/09/23 06:50:03;;;;;;;;;;;;;;;15.70;66.28;101424.43;1620557;87;20195;-77
2022/09/23 06:52:54;;;;;;;;;;;;;;;16.34;65.93;101423.22;1622294;87;20216;-77
2022/09/23 06:55:40;;;;;;;;;;;;;;;16.97;66.11;101415.79;1630580;86;20212;-77
2022/09/23 06:58:25;;;;;;;;;;;;;;;17.33;65.46;101412.48;1607091;87;20190;-78
2022/09/23 07:01:14;;;;;;;;;;;;;;;17.61;65.40;101415.94;1607800;87;20988;-77
2022/09/23 07:04:00;;;;;;;;;;;;;;;18.21;65.47;101417.39;1614754;87;20331;-77
2022/09/23 07:06:45;;;;;;;;;;;;;;;18.83;65.52;101421.69;1608529;87;20542;-77
2022/09/23 07:09:29;;;;;;;;;;;;;;;19.40;65.25;101418.17;1614975;87;20243;-77
2022/09/23 07:12:14;;;;;;;;;;;;;;;19.69;65.26;101418.34;1617429;87;20216;-78
2022/09/23 07:14:58;;;;;;;;;;;;;;;20.00;65.32;101421.83;1604446;87;20209;-78
2022/09/23 07:17:43;;;;;;;;;;;;;;;20.48;65.09;101421.03;1609126;88;20460;-77
2022/09/23 07:20:28;;;;;;;;;;;;;;;20.81;64.66;101425.21;1610519;87;20139;-77
2022/09/23 07:23:13;;;;;;;;;;;;;;;21.22;64.87;101420.31;1602054;87;20168;-78
2022/09/23 07:25:58;;;;;;;;;;;;;;;21.23;65.08;101422.86;1600594;88;20536;-77
2022/09/23 07:28:43;;;;;;;;;;;;;;;21.59;65.25;101426.80;1615111;87;21180;-77
2022/09/23 07:31:28;;;;;;;;;;;;;;;21.77;65.34;101431.16;1603471;88;20524;-77
2022/09/23 07:34:12;;;;;;;;;;;;;;;22.31;65.41;101431.94;1616419;87;20224;-77
2022/09/23 07:36:57;;;;;;;;;;;;;;;22.24;65.11;101435.81;1618807;88;20212;-77
2022/09/23 07:39:42;;;;;;;;;;;;;;;22.51;65.01;101428.69;1617876;88;20896;-77
2022/09/23 07:42:26;;;;;;;;;;;;;;;22.35;65.34;101426.89;1618066;88;20229;-78
2022/09/23 07:45:11;;;;;;;;;;;;;;;22.24;64.91;101428.38;1610908;88;20204;-78
2022/09/23 07:47:57;;;;;;;;;;;;;;;21.95;64.83;101432.45;1619978;85;20144;-78
2022/09/23 07:50:41;;;;;;;;;;;;;;;21.78;65.29;101433.33;1565860;88;20209;-78
2022/09/23 07:53:27;;;;;;;;;;;;;;;21.78;65.38;101432.86;1549690;90;20287;-78
2022/09/23 07:56:12;;;;;;;;;;;;;;;22.71;64.94;101429.81;1553507;90;21235;-78
2022/09/23 07:59:01;;;;;;;;;;;;;;;23.83;63.98;101436.30;1570706;90;20181;-77
2022/09/23 08:01:49;;;;;;;;;;;;;;;24.77;63.88;101435.00;1594450;88;20181;-77
2022/09/23 08:04:34;;;;;;;;;;;;;;;25.63;63.65;101432.03;1592988;88;20295;-77
2022/09/23 08:07:18;;;;;;;;;;;;;;;26.40;63.17;101426.89;1594368;88;20216;-77
2022/09/23 08:10:05;;;;;;;;;;;;;;;26.95;63.34;101422.02;1592487;88;20180;-77
2022/09/23 08:12:50;;;;;;;;;;;;;;;27.45;62.14;101418.81;1584642;88;20472;-77
2022/09/23 08:15:35;;;;;;;;;;;;;;;27.89;62.38;101421.29;1588069;88;20191;-77
2022/09/23 08:18:20;;;;;;;;;;;;;;;28.25;61.72;101417.63;1593485;88;20199;-77
2022/09/23 08:21:04;;;;;;;;;;;;;;;28.38;62.46;101418.37;1591414;88;20206;-77
2022/09/23 08:23:50;;;;;;;;;;;;;;;28.33;61.86;101421.88;1587986;88;20201;-77
2022/09/23 08:26:35;;;;;;;;;;;;;;;27.10;62.18;101420.55;1582323;88;20206;-78
2022/09/23 08:29:21;;;;;;;;;;;;;;;25.64;62.61;101420.52;1595131;88;20350;-77
2022/09/23 08:32:06;;;;;;;;;;;;;;;24.46;62.94;101424.98;1592618;88;20466;-77
2022/09/23 08:34:50;;;;;;;;;;;;;;;23.41;63.15;101422.80;1592653;88;20479;-77
2022/09/23 08:37:35;;;;;;;;;;;;;;;22.54;62.63;101414.89;1590428;90;20204;-77
2022/09/23 08:40:20;;;;;;;;;;;;;;;21.75;62.66;101418.53;1591057;88;20210;-77
2022/09/23 08:43:06;;;;;;;;;;;;;;;21.01;62.11;101415.09;1594173;88;20249;-77
2022/09/23 08:45:52;;;;;;;;;;;;;;;20.34;62.05;101411.56;1577300;88;20304;-77
2022/09/23 08:48:42;;;;;;;;;;;;;;;19.69;61.60;101407.84;1603742;88;20257;-77
2022/09/23 08:51:36;;;;;;;;;;;;;;;19.07;61.57;101403.33;1594624;88;20252;-77
2022/09/23 08:54:22;;;;;;;;;;;;;;;18.59;61.37;101407.31;1595230;88;20283;-77
2022/09/23 08:57:09;;;;;;;;;;;;;;;18.14;61.19;101405.45;1589196;88;20511;-77
2022/09/23 08:59:54;;;;;;;;;;;;;;;17.76;61.01;101403.67;1591741;88;20247;-77
2022/09/23 09:02:39;;;;;;;;;;;;;;;17.38;60.67;101401.44;1597418;88;20244;-77
2022/09/23 09:05:26;;;;;;;;;;;;;;;17.10;60.67;101406.68;1593235;88;20199;-77
2022/09/23 09:08:11;;;;;;;;;;;;;;;16.84;60.44;101410.06;1591616;88;20221;-76
2022/09/23 09:10:57;;;;;;;;;;;;;;;16.59;60.36;101405.98;1590485;88;20240;-77
2022/09/23 09:13:47;;;;;;;;;;;;;;;16.37;60.41;101403.11;1590474;88;20193;-76
2022/09/23 09:16:58;;;;;;;;;;;;;;;16.21;60.12;101400.50;1594185;87;20231;-76
2022/09/23 09:19:55;;;;;;;;;;;;;;;16.07;60.10;101401.34;1592318;88;20203;-77
2022/09/23 09:23:00;;;;;;;;;;;;;;;15.88;59.89;101394.44;1595262;88;20195;-76
2022/09/23 09:25:51;;;;;;;;;;;;;;;15.70;59.87;101396.20;1592912;88;20228;-76
2022/09/23 09:28:41;;;;;;;;;;;;;;;15.61;59.73;101394.67;1585499;88;20201;-77
2022/09/23 09:31:41;;;;;;;;;;;;;;;15.48;59.73;101390.64;1592409;88;20389;-76
2022/09/23 09:34:56;;;;;;;;;;;;;;;15.40;59.64;101389.97;1592462;89;20297;-76
2022/09/23 09:37:45;;;;;;;;;;;;;;;15.32;59.39;101383.63;1533452;91;20202;-76
2022/09/23 09:40:30;;;;;;;;;;;;;;;15.20;59.42;101379.55;1535576;91;20490;-76
2022/09/23 09:43:23;;;;;;;;;;;;;;;15.14;59.52;101378.83;1540329;91;20667;-76
2022/09/23 09:46:23;;;;;;;;;;;;;;;15.11;59.52;101383.66;1544933;91;20250;-77
2022/09/23 09:49:15;;;;;;;;;;;;;;;15.08;59.27;101377.22;1537696;91;20341;-77
2022/09/23 09:52:20;;;;;;;;;;;;;;;14.93;59.31;101369.78;1543268;88;610703;-76
2022/09/23 09:55:25;;;;;;;;;;;;;;;14.94;59.46;101365.42;1551708;90;21036;-76
2022/09/23 09:58:14;;;;;;;;;;;;;;;14.97;59.42;101364.05;1547295;90;20522;-76
2022/09/23 10:00:58;;;;;;;;;;;;;;;15.04;59.22;101357.82;1579522;89;20220;-76
2022/09/23 10:03:44;;;;;;;;;;;;;;;15.11;59.35;101355.45;1581509;89;20231;-76
2022/09/23 10:06:33;;;;;;;;;;;;;;;15.12;59.23;101351.52;1575303;89;20658;-76
2022/09/23 10:09:18;;;;;;;;;;;;;;;15.15;59.25;101355.35;1598421;88;20185;-76
2022/09/23 10:12:14;;;;;;;;;;;;;;;15.18;59.21;101353.98;1586675;89;20204;-76
2022/09/23 10:14:59;;;;;;;;;;;;;;;15.21;59.13;101348.70;1592920;88;20210;-76
2022/09/23 10:17:46;;;;;;;;;;;;;;;15.21;59.04;101346.09;1592738;88;20209;-76
2022/09/23 10:20:36;;;;;;;;;;;;;;;15.18;59.06;101337.49;1570926;89;20199;-77
2022/09/23 10:23:23;;;;;;;;;;;;;;;15.20;59.19;101339.17;1622487;87;20235;-76
2022/09/23 10:26:10;;;;;;;;;;;;;;;15.26;58.96;101346.44;1623397;87;20224;-76
2022/09/23 10:28:54;;;;;;;;;;;;;;;15.27;58.94;101337.72;1620313;86;20213;-76
2022/09/23 10:31:39;;;;;;;;;;;;;;;15.30;58.84;101339.81;1618152;87;20197;-76
2022/09/23 10:34:27;;;;;;;;;;;;;;;15.34;58.85;101341.45;1625080;86;20278;-76
2022/09/23 10:37:20;;;;;;;;;;;;;;;15.36;58.68;101335.75;1630836;87;20230;-76
2022/09/23 10:46:45;;;;;;;;;;;;;;;15.48;58.65;101326.78;1627241;86;20558;-77
2022/09/23 10:49:50;;;;;;;;;;;;;;;15.49;58.59;101319.38;1626578;87;20210;-76
2022/09/23 10:52:41;;;;;;;;;;;;;;;15.47;58.62;101318.55;1610760;87;20259;-76
2022/09/23 10:55:46;;;;;;;;;;;;;;;15.48;58.42;101321.57;1625794;87;20157;-76
2022/09/23 10:58:49;;;;;;;;;;;;;;;15.43;58.38;101309.95;1659136;86;20405;-76
2022/09/23 11:01:38;;;;;;;;;;;;;;;15.43;58.48;101312.56;1657986;86;20206;-76
2022/09/23 11:04:32;;;;;;;;;;;;;;;15.40;58.33;101307.87;1651960;84;20233;-77
2022/09/23 11:07:34;;;;;;;;;;;;;;;15.45;58.24;101307.31;1655409;86;20188;-77
2022/09/23 11:10:38;;;;;;;;;;;;;;;15.52;58.35;101304.52;1647431;86;20215;-76
2022/09/23 11:13:43;;;;;;;;;;;;;;;15.59;57.73;101295.27;1653405;86;20184;-76
2022/09/23 11:16:43;;;;;;;;;;;;;;;15.65;58.29;101289.42;1655765;86;20177;-76
2022/09/23 11:19:40;;;;;;;;;;;;;;;15.70;57.95;101287.99;1648036;86;20230;-76
2022/09/23 11:22:49;;;;;;;;;;;;;;;15.73;58.04;101286.61;1656833;86;20468;-76
2022/09/23 11:25:53;;;;;;;;;;;;;;;15.70;57.93;101281.03;1651906;84;20619;-76
2022/09/23 11:28:41;;;;;;;;;;;;;;;15.68;57.94;101276.75;1662949;84;20599;-76
2022/09/23 11:31:41;;;;;;;;;;;;;;;15.71;57.55;101273.61;1658652;85;20205;-76
2022/09/23 11:34:35;;;;;;;;;;;;;;;15.75;57.16;101270.02;1657675;85;20250;-76
2022/09/23 11:37:30;;;;;;;;;;;;;;;15.75;57.75;101266.11;1659358;85;20196;-76
2022/09/23 11:40:18;;;;;;;;;;;;;;;15.78;57.75;101256.91;1657885;86;20500;-76
2022/09/23 11:43:22;;;;;;;;;;;;;;;15.85;57.76;101261.51;1652513;85;20681;-76
2022/09/23 11:46:12;;;;;;;;;;;;;;;15.92;57.91;101252.62;1653696;86;20105;-76
2022/09/23 11:49:06;;;;;;;;;;;;;;;16.00;54.66;101251.95;1661841;86;20165;-76
2022/09/23 11:52:19;;;;;;;;;;;;;;;16.12;57.19;101253.33;1648208;86;20138;-76
2022/09/23 11:55:18;;;;;;;;;;;;;;;16.16;57.33;101253.65;1662796;86;20113;-76
2022/09/23 11:58:06;;;;;;;;;;;;;;;16.18;57.19;101247.48;1648599;86;20133;-76
2022/09/23 12:01:00;;;;;;;;;;;;;;;16.19;57.33;101246.59;1663984;85;20287;-76
2022/09/23 12:03:59;;;;;;;;;;;;;;;16.20;56.95;101241.78;1637561;86;20197;-76
2022/09/23 12:07:08;;;;;;;;;;;;;;;16.19;57.09;101239.20;1640866;85;20419;-76
2022/09/23 12:09:59;;;;;;;;;;;;;;;16.17;56.99;101232.73;1656731;86;20129;-77
2022/09/23 12:12:56;;;;;;;;;;;;;;;16.16;57.00;101224.50;1661472;86;20106;-76
2022/09/23 12:16:00;;;;;;;;;;;;;;;16.17;55.84;101222.30;1655794;86;20470;-77
2022/09/23 12:19:05;;;;;;;;;;;;;;;16.17;56.82;101222.74;1660782;85;20113;-77
2022/09/23 12:21:55;;;;;;;;;;;;;;;16.14;56.82;101219.77;1654749;85;20151;-77
2022/09/23 12:24:55;;;;;;;;;;;;;;;16.16;56.83;101212.76;1659152;85;20519;-77
2022/09/23 12:27:46;;;;;;;;;;;;;;;16.21;56.74;101213.48;1652418;86;20229;-77
2022/09/23 12:30:33;;;;;;;;;;;;;;;16.26;56.74;101204.20;1654160;86;20164;-77
2022/09/23 12:33:29;;;;;;;;;;;;;;;16.27;56.52;101206.37;1661769;84;20484;-77
2022/09/23 12:36:13;;;;;;;;;;;;;;;16.22;56.55;101203.44;1652819;86;20205;-77
2022/09/23 12:39:06;;;;;;;;;;;;;;;16.18;56.60;101208.34;1653168;86;20295;-77
2022/09/23 12:41:59;;;;;;;;;;;;;;;16.12;56.62;101211.58;1652913;86;20185;-77
2022/09/23 12:44:46;;;;;;;;;;;;;;;16.07;56.70;101208.28;1659163;85;20214;-77
2022/09/23 12:47:38;;;;;;;;;;;;;;;16.01;56.70;101204.55;1659355;84;20193;-77
2022/09/23 12:50:46;;;;;;;;;;;;;;;15.96;56.76;101200.77;1656848;85;20497;-77
2022/09/23 12:53:37;;;;;;;;;;;;;;;15.93;56.78;101203.47;1646216;85;20201;-77
2022/09/23 12:56:25;;;;;;;;;;;;;;;15.88;56.69;101198.83;1659864;84;20678;-77
2022/09/23 12:59:34;;;;;;;;;;;;;;;15.87;56.60;101197.97;1631405;83;20219;-77
2022/09/23 13:02:34;;;;;;;;;;;;;;;15.88;56.47;101197.53;1630541;86;20209;-77
2022/09/23 13:08:26;;;;;;;;;;;;;;;15.88;56.33;101187.09;1626123;86;20555;-79
2022/09/23 13:11:17;;;;;;;;;;;;;;;15.90;56.16;101180.08;1637347;85;20178;-76
2022/09/23 13:14:03;;;;;;;;;;;;;;;15.95;56.21;101170.81;1639646;84;20137;-76
2022/09/23 13:16:48;;;;;;;;;;;;;;;16.01;56.16;101168.03;1637047;87;20161;-76
2022/09/23 13:19:36;;;;;;;;;;;;;;;16.05;56.21;101163.98;1638706;86;20144;-77
2022/09/23 13:22:53;;;;;;;;;;;;;;;16.08;56.18;101161.73;1638379;86;20117;-77
2022/09/23 13:25:39;;;;;;;;;;;;;;;16.05;56.08;101160.52;1635419;87;20121;-77
2022/09/23 13:28:36;;;;;;;;;;;;;;;16.06;56.19;101153.09;1636210;87;20130;-77
2022/09/23 13:31:21;;;;;;;;;;;;;;;16.09;56.14;101151.70;1638281;87;20105;-78
2022/09/23 13:34:07;;;;;;;;;;;;;;;16.18;56.22;101146.17;1634641;87;20137;-78
2022/09/23 13:36:52;;;;;;;;;;;;;;;16.24;55.98;101148.59;1626190;87;20716;-78
2022/09/23 13:39:37;;;;;;;;;;;;;;;16.25;55.82;101149.00;1636694;87;20122;-78
2022/09/23 13:42:29;;;;;;;;;;;;;;;16.22;55.68;101150.40;1622291;87;20213;-78
2022/09/23 13:45:17;;;;;;;;;;;;;;;16.20;55.67;101145.67;1630633;86;20198;-78
2022/09/23 13:48:04;;;;;;;;;;;;;;;16.15;55.71;101141.91;1637650;87;20193;-78
2022/09/23 13:50:52;;;;;;;;;;;;;;;16.11;55.59;101141.63;1634370;87;20220;-78
2022/09/23 13:53:37;;;;;;;;;;;;;;;16.07;55.71;101136.55;1635979;87;20201;-79
2022/09/23 13:56:23;;;;;;;;;;;;;;;16.02;55.67;101135.83;1638241;87;21165;-79
2022/09/23 13:59:24;;;;;;;;;;;;;;;15.96;55.40;101126.88;1612597;87;20207;-79
2022/09/23 14:02:15;;;;;;;;;;;;;;;15.91;55.63;101124.86;1623188;87;20205;-79
2022/09/23 14:05:04;;;;;;;;;;;;;;;15.84;55.47;101123.73;1623129;87;20201;-80
2022/09/23 14:07:50;;;;;;;;;;;;;;;15.78;55.48;101113.94;1628039;87;20300;-79
2022/09/23 14:10:35;;;;;;;;;;;;;;;15.73;55.44;101119.73;1622771;86;20241;-79
2022/09/23 14:13:23;;;;;;;;;;;;;;;15.66;55.50;101107.77;1631514;86;20255;-79
2022/09/23 14:16:11;;;;;;;;;;;;;;;15.57;55.47;101110.23;1630065;86;20529;-76
2022/09/23 14:18:57;;;;;;;;;;;;;;;15.49;55.51;101113.47;1629366;87;20468;-76
2022/09/23 14:21:42;;;;;;;;;;;;;;;15.40;55.42;101108.51;1627924;86;20210;-76
2022/09/23 14:24:32;;;;;;;;;;;;;;;15.33;55.39;101103.06;1631334;86;20414;-77
2022/09/23 14:27:27;;;;;;;;;;;;;;;15.26;55.37;101109.34;1625626;87;20808;-77
2022/09/23 14:30:20;;;;;;;;;;;;;;;15.17;55.31;101107.83;1629141;87;20213;-77
2022/09/23 14:33:08;;;;;;;;;;;;;;;15.09;55.35;101103.27;1627391;86;20894;-78
2022/09/23 14:35:55;;;;;;;;;;;;;;;15.01;55.42;101098.30;1622724;86;20248;-78
2022/09/23 14:38:49;;;;;;;;;;;;;;;14.94;55.39;101095.45;1622104;86;20212;-77
2022/09/23 14:41:37;;;;;;;;;;;;;;;14.89;55.46;101096.02;1622517;86;20216;-77
2022/09/23 14:44:29;;;;;;;;;;;;;;;14.83;55.38;101098.78;1622538;86;20245;-77
2022/09/23 14:47:12;;;;;;;;;;;;;;;14.78;55.38;101088.48;1619939;88;20188;-77